Terminal Aerodrome Forecast
Issued by NWS Tulsa, OK

Home | Current Version | Previous Version | Text Only | Print | Product List | Glossary On
Versions: 1 2 3 4 5 6 7 8 9 10 11 12
000
FTUS44 KTSA 042300
TAFFSM
TAF
KFSM 042326Z 0500/0524 15007KT P6SM SCT070
     FM050100 15006KT P6SM SCT250
     FM050300 09003KT P6SM SCT250 WS020/17035KT
     FM051500 14008KT P6SM SCT100 BKN250
     FM051900 15009KT P6SM SCT060=

USA.gov is the U.S. government's official web portal to all federal, state and local government web resources and services.